Terminal Aerodrome Forecast
Issued by NWS Grand Forks, ND

Home | Current Version | Previous Version | Graphics & Text | Print | Product List | Glossary On
Versions: 1 2 3 4 5 6 7 8 9 10 11 12 13 14 15 16 17 18 19
000
FTUS43 KFGF 221732
TAFGFK
TAF
KGFK 221732Z 2218/2318 18012KT P6SM FEW250
     FM222200 VRB06KT P6SM BKN060
     FM230400 VRB03KT 5SM -SN OVC035
     FM231000 34006KT P6SM BKN035
     FM231600 31007KT P6SM SCT100=

USA.gov is the U.S. government's official web portal to all federal, state and local government web resources and services.